Barnwell, South Carolina
Current Conditions -  °F | °C
As of 5:15 PM on Tuesday 25 Nov 2014 (Local Time) from KBNL Reporting Station
NA  
Wind Chill: 57°   Ceiling: NA
Heat Index: 57°   Visibility: NA
Dew Point: 57°   Wind: 3mph
Humidity: 100%   Direction: 30°NNE
Pressure: 30.01"   Gusts: NA
Location:  33.24°N, 81.36°W
Report Text: KBNL 252215Z AUTO 03003KT 14/14 A3001 RMK AO2
Loading
Personal Weather Stations






























Interactive Weather Map New forecast layout! Learn more

10-Day Weather Forecast

Advertisements
Track Severe Weather on mobile